This is the latest recevied weather packets stored in our database for station/object LRBV. If no packets are shown the sender has not sent any weather packets the latest 10 day(s).
| Time | Temp. | Humidity | Pressure | Rain* | Wind** | Luminosity | Snow |
|---|---|---|---|---|---|---|---|
| 1777697330 | 6.11° C | 76% | 1023 hPa | - | - | - | - |
| 1777696430 | 6.11° C | 76% | 1023 hPa | - | - | - | - |
| 1777695531 | 6.11° C | 76% | 1023 hPa | - | - | - | - |
| 1777694630 | 6.11° C | 76% | 1023 hPa | - | - | - | - |
| 1777693812 | 5° C | 81% | 1022 hPa | - | - | - | - |
| 1777692830 | 5° C | 81% | 1022 hPa | - | - | - | - |
| 1777691930 | 5° C | 81% | 1022 hPa | - | - | - | - |
| 1777691030 | 5° C | 81% | 1022 hPa | - | - | - | - |
| 1777690130 | 5° C | 81% | 1022 hPa | - | - | - | - |
| 1777689230 | 5° C | 81% | 1022 hPa | - | - | - | - |
| 1777688331 | 5° C | 76% | 1022 hPa | - | - | - | - |
| 1777671231 | 6.11° C | 66% | 1023 hPa | - | - | - | - |
| 1777669431 | 7.22° C | 53% | 1023 hPa | - | - | - | - |
| 1777667633 | 6.11° C | 57% | 1023 hPa | - | - | - | - |
| 1777666731 | 7.22° C | 53% | 1023 hPa | - | - | - | - |
| 1777664052 | 7.22° C | 53% | 1023 hPa | - | - | - | - |
| 1777662231 | 7.78° C | 53% | 1023 hPa | - | - | - | - |
| 1777661330 | 7.78° C | 53% | 1023 hPa | - | - | - | - |
| 1777660460 | 7.78° C | 53% | 1023 hPa | - | - | - | - |
| 1777659531 | 8.89° C | 46% | 1023 hPa | - | - | - | - |
| 1777655955 | 8.89° C | 46% | 1023 hPa | - | - | - | - |
| 1777653230 | 8.89° C | 43% | 1022 hPa | - | - | - | - |
| 1777652330 | 10° C | 37% | 1022 hPa | - | - | - | - |
| 1777651431 | 10° C | 37% | 1022 hPa | - | - | - | - |
| 1777649630 | 11.11° C | 35% | 1022 hPa | - | - | - | - |
* Rain since midnight (hover to see other rain measurements)
** Current wind speed in m/s (hover to see current wind gust speed)